Riverton, WY (82501)

2:46 AM MDT on September 18, 2014 (GMT -0600)
KWYRIVER2 | Change Station
CLOSE
Current Station
Personal Weather Station
Location: Riverton, WY
Elevation: 5405 ft
Nearby Weather Stations

Elev 5405 ft 43.08 °N, 108.52 °W | Updated 13 minutes ago

Clear
Clear
55.8 °F
Feels Like 55.8 °F
N
0.0
Wind Variable Wind from NNW

Today
High -- | Low -- °F
--% Chance of Precip.
Yesterday
High -- | Low -- °F
Precip. -- in
6:56 AM 7:18 PM
Waning Crescent, 29% visible
Pressure 29.86 in
Visibility 10.0 miles
Clouds Clear
Dew Point 43 °F
Humidity 63%
Rainfall 0.00 in
Snow Depth Not available.
UV 0.0 out of 12
Pollen 5.90 out of 12
Air Quality Not available.
Flu Activity Not available.
METAR KRIW 180753Z AUTO 00000KT 10SM CLR 12/03 A3004 RMK AO2 SLP109 T01220033

More Conditions Fewer Conditions

Pressure 29.86 in
Visibility 10.0 miles
Clouds Clear
Dew Point 43 °F
Humidity 63%
Rainfall 0.00 in
Snow Depth Not available.
UV 0.0 out of 12
Pollen 5.90 out of 12
Air Quality Not available.
Flu Activity Not available.
METAR KRIW 180753Z AUTO 00000KT 10SM CLR 12/03 A3004 RMK AO2 SLP109 T01220033

More Conditions Fewer Conditions

10-Day Weather Forecast

Almanac

Astronomy

Sep. 18, 2014 Rise Set
Actual Time 6:56 AM MDT 7:18 PM MDT
Civil Twilight 6:28 AM MDT 7:46 PM MDT
Nautical Twilight 5:54 AM MDT 8:19 PM MDT
Astronomical Twilight 5:20 AM MDT 8:54 PM MDT
Moon 1:45 AM MDT 4:16 PM MDT
Length of Visible Light 13h 18m
Length of Day
12h 21m
Tomorrow will be 2m 55s shorter.
Waning Crescent, 29% of the Moon is Illuminated
Today
Waning Crescent
Sep 24
New
Oct 1
First Quarter
Oct 8
Full
Oct 15
Last Quarter

Today's Extremes

State Highs State Lows

Community

WunderPhotos

Upload Photos

1,754,310 photos uploaded!

Nearby

Snow Depth

Station Depth Elevation
Blind Bull Summit 2 in 8900 ft
Thumb Divide 0 in 7980 ft
New Fork Lake 0 in 8340 ft
Webber Springs 0 in 9250 ft
Sand Lake 0 in 10050 ft

Earthquake Activity

City Distance Mag. Time & Date
No recent earthquake activity has been reported nearby.
Minimum magnitude displayed is 2.5.

Coastal Water Temperatures

Place Temperature
No Stations Reporting

Nearby Weather Stations